Time;durP1;ratioP1;P1;durP2;ratioP2;P2;SDS_P1;SDS_P2;PMS_P1;PMS_P2;Temp;Humidity;BMP_temperature;BMP_pressure;BME280_temperature;BME280_humidity;BME280_pressure;Samples;Min_cycle;Max_cycle;Signal;HPM_P1;HPM_P2
2022/11/17 00:02:05;;;;;;;9.27;5.15;;;11.50;99.90;;;;;;5099830;28;20032;-72
2022/11/17 00:04:31;;;;;;;8.48;4.97;;;11.40;99.90;;;;;;5107078;28;20019;-72
2022/11/17 00:06:58;;;;;;;7.80;4.90;;;11.40;99.90;;;;;;5090801;28;20110;-73
2022/11/17 00:09:23;;;;;;;11.70;5.45;;;11.40;99.90;;;;;;5106048;28;20626;-73
2022/11/17 00:14:53;;;;;;;9.88;5.60;;;11.40;99.90;;;;;;5050730;28;20052;-73
2022/11/17 00:17:19;;;;;;;9.85;5.35;;;11.50;99.90;;;;;;5043348;28;20040;-73
2022/11/17 00:22:30;;;;;;;11.65;5.70;;;11.40;99.90;;;;;;5104625;28;20124;-73
2022/11/17 00:24:56;;;;;;;11.65;6.35;;;11.40;99.90;;;;;;5103536;28;20028;-74
2022/11/17 00:27:22;;;;;;;10.13;5.45;;;11.50;99.90;;;;;;5102864;28;20040;-73
2022/11/17 00:29:48;;;;;;;12.98;5.88;;;11.50;99.90;;;;;;5106913;28;20073;-73
2022/11/17 00:35:01;;;;;;;9.27;5.55;;;11.60;99.90;;;;;;5108139;28;20038;-73
2022/11/17 00:37:29;;;;;;;5.70;4.35;;;11.60;99.90;;;;;;5105094;28;20032;-72
2022/11/17 00:39:54;;;;;;;7.45;5.18;;;11.50;99.90;;;;;;5090571;28;20016;-74
2022/11/17 00:42:20;;;;;;;11.00;5.38;;;11.50;99.90;;;;;;5108001;28;20034;-73
2022/11/17 00:44:45;;;;;;;8.35;4.80;;;11.50;99.90;;;;;;5100495;27;20038;-73
2022/11/17 00:47:11;;;;;;;5.93;4.63;;;11.60;99.90;;;;;;5108266;28;20035;-73
2022/11/17 00:49:37;;;;;;;6.35;4.80;;;11.60;99.90;;;;;;5111907;28;20019;-73
2022/11/17 00:52:02;;;;;;;8.68;4.97;;;11.70;99.90;;;;;;5086101;28;20105;-73
2022/11/17 00:54:28;;;;;;;8.85;5.70;;;11.80;99.90;;;;;;5109485;28;20020;-74
2022/11/17 00:56:54;;;;;;;13.45;5.78;;;11.80;99.90;;;;;;5105920;27;20043;-72
2022/11/17 00:59:19;;;;;;;8.23;4.80;;;11.70;99.90;;;;;;5107832;28;20023;-73
2022/11/17 01:01:45;;;;;;;13.77;5.35;;;11.60;99.90;;;;;;5110985;28;20028;-73
2022/11/17 01:04:12;;;;;;;10.43;5.60;;;11.50;99.90;;;;;;5105691;28;20075;-73
2022/11/17 01:06:43;;;;;;;6.20;2.97;;;11.50;99.90;;;;;;5106911;28;20059;-73
2022/11/17 01:09:15;;;;;;;3.03;1.52;;;11.50;99.90;;;;;;5106507;28;20062;-72
2022/11/17 01:11:42;;;;;;;3.23;1.80;;;11.60;99.90;;;;;;5110114;28;20130;-73
2022/11/17 01:14:12;;;;;;;2.83;1.40;;;11.80;99.90;;;;;;5105544;28;20317;-73
2022/11/17 01:16:38;;;;;;;1.85;1.20;;;11.80;99.90;;;;;;5105139;28;20089;-73
2022/11/17 01:19:04;;;;;;;1.50;0.98;;;11.80;99.90;;;;;;5108940;28;20027;-73
2022/11/17 01:21:31;;;;;;;1.60;1.25;;;11.70;99.90;;;;;;5105801;28;20024;-73
2022/11/17 01:23:58;;;;;;;2.42;1.45;;;11.80;99.90;;;;;;5107781;28;20016;-76
2022/11/17 01:26:29;;;;;;;2.25;1.60;;;11.80;99.90;;;;;;5112974;28;20384;-74
2022/11/17 01:28:56;;;;;;;1.80;1.42;;;11.80;99.90;;;;;;5104223;28;20047;-73
2022/11/17 01:31:25;;;;;;;2.83;1.88;;;11.80;99.90;;;;;;5102664;28;20034;-73
2022/11/17 01:33:51;;;;;;;2.15;1.60;;;11.80;99.90;;;;;;5106722;28;20022;-74
2022/11/17 01:36:20;;;;;;;5.13;1.98;;;11.80;99.90;;;;;;5107939;28;20332;-74
2022/11/17 01:38:46;;;;;;;2.20;1.58;;;11.70;99.90;;;;;;5092504;28;20115;-74
2022/11/17 01:41:16;;;;;;;2.70;1.08;;;11.80;99.90;;;;;;5093527;28;20115;-73
2022/11/17 01:43:45;;;;;;;0.75;0.73;;;11.80;99.90;;;;;;5097621;28;20053;-73
2022/11/17 01:46:47;;;;;;;2.65;1.15;;;11.80;99.90;;;;;;5087932;28;20116;-73
2022/11/17 01:49:21;;;;;;;0.63;0.60;;;11.90;99.90;;;;;;5005299;28;20471;-73
2022/11/17 01:51:53;;;;;;;0.80;0.52;;;11.80;99.90;;;;;;5092568;28;20082;-74
2022/11/17 01:54:21;;;;;;;1.67;0.50;;;11.80;99.90;;;;;;5102403;28;20111;-73
2022/11/17 01:56:53;;;;;;;1.25;0.60;;;11.90;99.90;;;;;;5093037;28;20311;-73
2022/11/17 01:59:28;;;;;;;0.60;0.60;;;11.90;99.90;;;;;;5105367;28;20078;-73
2022/11/17 02:01:54;;;;;;;2.25;0.63;;;11.90;99.90;;;;;;5109433;28;20422;-73
2022/11/17 02:04:35;;;;;;;1.52;0.40;;;11.90;99.90;;;;;;5098843;27;20035;-74
2022/11/17 02:07:14;;;;;;;2.67;0.57;;;11.90;99.90;;;;;;5107171;28;20015;-74
2022/11/17 02:09:40;;;;;;;2.78;0.82;;;11.90;99.90;;;;;;5104787;28;20032;-74
2022/11/17 02:12:11;;;;;;;0.50;0.35;;;11.80;99.90;;;;;;5102858;28;20472;-73
2022/11/17 02:14:37;;;;;;;2.05;0.60;;;11.80;99.90;;;;;;5107043;28;20062;-73
2022/11/17 02:17:04;;;;;;;1.67;0.50;;;11.80;99.90;;;;;;5086402;28;20040;-73
2022/11/17 02:19:37;;;;;;;0.52;0.40;;;11.80;99.90;;;;;;5103472;27;20070;-73
2022/11/17 02:22:24;;;;;;;0.85;0.40;;;11.80;99.90;;;;;;5106322;28;20020;-73
2022/11/17 02:25:09;;;;;;;1.13;0.50;;;11.80;99.90;;;;;;5106762;28;20027;-73
2022/11/17 02:27:49;;;;;;;3.10;0.43;;;11.90;99.90;;;;;;5110711;28;20429;-73
2022/11/17 02:30:18;;;;;;;1.75;0.40;;;11.90;99.90;;;;;;5101527;27;20024;-74
2022/11/17 02:33:00;;;;;;;2.50;0.50;;;11.90;99.90;;;;;;5108510;28;20392;-74
2022/11/17 02:35:36;;;;;;;2.45;0.52;;;12.00;99.90;;;;;;5091071;28;20069;-74
2022/11/17 02:38:04;;;;;;;1.90;0.82;;;12.00;99.90;;;;;;5105684;28;20487;-74
2022/11/17 02:40:34;;;;;;;0.90;0.63;;;12.00;99.90;;;;;;5105658;27;20031;-73
2022/11/17 02:45:55;;;;;;;3.53;0.40;;;12.10;99.90;;;;;;5100861;28;20042;-73
2022/11/17 02:48:34;;;;;;;2.15;0.50;;;12.10;99.90;;;;;;5108589;28;20038;-73
2022/11/17 02:51:03;;;;;;;1.35;0.40;;;12.10;99.90;;;;;;5106863;28;20027;-73
2022/11/17 02:53:30;;;;;;;0.95;0.32;;;12.10;99.90;;;;;;5110188;28;20027;-73
2022/11/17 02:55:59;;;;;;;2.05;0.50;;;12.10;99.90;;;;;;5102198;28;20480;-73
2022/11/17 02:58:24;;;;;;;1.90;0.50;;;12.10;99.90;;;;;;5104859;28;20051;-73
2022/11/17 03:00:56;;;;;;;1.20;0.50;;;12.10;99.90;;;;;;5111173;28;20464;-73
2022/11/17 03:03:42;;;;;;;1.23;0.47;;;12.10;99.90;;;;;;5090440;28;20483;-72
2022/11/17 03:06:41;;;;;;;3.10;0.57;;;12.10;99.90;;;;;;5102117;28;20064;-73
2022/11/17 03:09:23;;;;;;;2.47;0.55;;;12.10;99.90;;;;;;5066229;28;20123;-73
2022/11/17 03:11:55;;;;;;;1.85;0.40;;;12.20;99.90;;;;;;5103580;28;20030;-73
2022/11/17 03:14:45;;;;;;;2.92;0.80;;;12.20;99.90;;;;;;5103473;28;20440;-73
2022/11/17 03:17:28;;;;;;;3.40;0.40;;;12.20;99.90;;;;;;5107435;28;20396;-73
2022/11/17 03:20:15;;;;;;;3.35;0.40;;;12.10;99.90;;;;;;5102263;28;20084;-73
2022/11/17 03:22:59;;;;;;;1.15;0.45;;;12.10;99.90;;;;;;5104261;28;20015;-72
2022/11/17 03:25:26;;;;;;;2.55;0.30;;;12.00;99.90;;;;;;5104834;28;20108;-73
2022/11/17 03:27:56;;;;;;;2.17;0.50;;;11.90;99.90;;;;;;5100705;28;20024;-73
2022/11/17 03:30:23;;;;;;;0.50;0.30;;;11.90;99.90;;;;;;5103182;28;20031;-73
2022/11/17 03:32:54;;;;;;;0.65;0.50;;;11.90;99.90;;;;;;5103969;28;20020;-73
2022/11/17 03:35:24;;;;;;;3.58;0.50;;;11.90;99.90;;;;;;5106425;28;20031;-73
2022/11/17 03:37:58;;;;;;;0.63;0.28;;;11.80;99.90;;;;;;5102532;28;20461;-73
2022/11/17 03:40:28;;;;;;;0.93;0.40;;;11.90;99.90;;;;;;5106575;28;20035;-73
2022/11/17 03:43:01;;;;;;;1.20;0.60;;;11.80;99.90;;;;;;5101341;28;20387;-73
2022/11/17 03:45:27;;;;;;;0.65;0.38;;;11.80;99.90;;;;;;5109209;28;20055;-73
2022/11/17 03:48:02;;;;;;;0.45;0.40;;;11.80;99.90;;;;;;5082569;28;20495;-73
2022/11/17 03:50:35;;;;;;;0.43;0.40;;;11.90;99.90;;;;;;5108273;28;20054;-73
2022/11/17 03:53:04;;;;;;;0.38;0.28;;;11.90;99.90;;;;;;5097386;28;20027;-73
2022/11/17 03:55:41;;;;;;;0.93;0.35;;;11.90;99.90;;;;;;5108089;28;20020;-73
2022/11/17 03:58:13;;;;;;;0.65;0.30;;;11.90;99.90;;;;;;5099754;28;20112;-73
2022/11/17 04:00:41;;;;;;;1.63;0.40;;;12.00;99.90;;;;;;5092085;28;20507;-73
2022/11/17 04:03:07;;;;;;;0.88;0.50;;;12.00;99.90;;;;;;5105008;28;20028;-73
2022/11/17 04:05:32;;;;;;;2.28;0.47;;;12.00;99.90;;;;;;5107709;28;20016;-73
2022/11/17 04:07:58;;;;;;;2.92;0.47;;;12.00;99.90;;;;;;5092605;28;20122;-72
2022/11/17 04:10:25;;;;;;;0.65;0.40;;;12.00;99.90;;;;;;5109098;28;20023;-73
2022/11/17 04:15:55;;;;;;;2.45;0.75;;;12.00;99.90;;;;;;5106260;28;20043;-72
2022/11/17 04:18:21;;;;;;;2.55;0.63;;;12.00;99.90;;;;;;5111333;28;20024;-72
2022/11/17 04:20:53;;;;;;;0.75;0.63;;;12.00;99.90;;;;;;5105439;28;20515;-73
2022/11/17 04:23:18;;;;;;;2.63;0.80;;;12.00;99.90;;;;;;5095923;28;20460;-72
2022/11/17 04:28:38;;;;;;;1.92;0.90;;;12.00;99.90;;;;;;5106604;28;20062;-73
2022/11/17 04:31:21;;;;;;;6.50;0.90;;;12.10;99.90;;;;;;5100030;28;20716;-73
2022/11/17 04:33:53;;;;;;;10.80;1.55;;;12.00;99.90;;;;;;5091455;28;20024;-73
2022/11/17 04:36:24;;;;;;;4.05;1.25;;;12.10;99.90;;;;;;5094642;28;20031;-73
2022/11/17 04:38:52;;;;;;;8.50;1.30;;;12.20;99.90;;;;;;5105113;28;20023;-73
2022/11/17 04:44:05;;;;;;;5.03;1.00;;;12.30;99.90;;;;;;5106208;28;20070;-73
2022/11/17 04:46:33;;;;;;;9.10;1.73;;;12.20;99.90;;;;;;5106332;28;20032;-73
2022/11/17 04:49:00;;;;;;;5.45;1.38;;;12.30;99.90;;;;;;5102479;28;20119;-73
2022/11/17 04:51:27;;;;;;;8.27;1.65;;;12.10;99.90;;;;;;5106975;28;20396;-73
2022/11/17 04:53:54;;;;;;;6.95;1.55;;;12.10;99.90;;;;;;5110090;28;20376;-73
2022/11/17 04:56:21;;;;;;;7.10;1.88;;;12.10;99.90;;;;;;5113523;28;20038;-73
2022/11/17 04:58:47;;;;;;;8.00;1.50;;;12.10;99.90;;;;;;5109486;28;20051;-73
2022/11/17 05:01:13;;;;;;;12.82;2.50;;;12.00;99.90;;;;;;5114641;28;20020;-73
2022/11/17 05:03:48;;;;;;;11.80;2.25;;;12.10;99.90;;;;;;5109254;28;20020;-73
2022/11/17 05:06:19;;;;;;;6.72;1.98;;;12.10;99.90;;;;;;5113165;28;20583;-73
2022/11/17 05:08:45;;;;;;;8.57;1.58;;;12.10;99.90;;;;;;5110794;28;20016;-73
2022/11/17 05:13:58;;;;;;;12.20;2.28;;;12.10;99.90;;;;;;5107322;28;20039;-73
2022/11/17 05:19:21;;;;;;;9.57;1.75;;;12.10;99.90;;;;;;5107595;28;20123;-73
2022/11/17 05:21:47;;;;;;;13.45;2.10;;;12.20;99.90;;;;;;5112114;28;20030;-73
2022/11/17 05:24:13;;;;;;;11.30;1.90;;;12.30;99.90;;;;;;5110830;28;20034;-73
2022/11/17 05:26:41;;;;;;;8.55;1.85;;;12.30;99.90;;;;;;5092732;28;20024;-73
2022/11/17 05:29:08;;;;;;;12.13;2.20;;;12.30;99.90;;;;;;5101276;28;20020;-73
2022/11/17 05:31:34;;;;;;;10.10;2.15;;;12.30;99.90;;;;;;5110781;28;20020;-74
2022/11/17 05:34:01;;;;;;;10.00;2.00;;;12.30;99.90;;;;;;5107545;28;20016;-73
2022/11/17 05:36:28;;;;;;;7.70;1.90;;;12.30;99.90;;;;;;5110818;28;20031;-73
2022/11/17 05:38:55;;;;;;;10.63;1.90;;;12.20;99.90;;;;;;5085727;28;20085;-73
2022/11/17 05:41:21;;;;;;;10.48;2.30;;;12.20;99.90;;;;;;5114569;28;20464;-73
2022/11/17 05:43:49;;;;;;;11.05;2.10;;;12.30;99.90;;;;;;5110740;28;20413;-73
2022/11/17 05:46:15;;;;;;;13.02;2.47;;;12.30;99.90;;;;;;5108445;28;20020;-73
2022/11/17 05:48:40;;;;;;;7.32;2.03;;;12.20;99.90;;;;;;5104583;28;20070;-73
2022/11/17 05:51:06;;;;;;;11.95;2.30;;;12.10;99.90;;;;;;5101924;28;20062;-73
2022/11/17 05:53:31;;;;;;;10.30;1.65;;;12.10;99.90;;;;;;5110550;28;20129;-74
2022/11/17 05:56:12;;;;;;;9.73;1.83;;;12.00;99.90;;;;;;5104570;28;20059;-73
2022/11/17 05:58:41;;;;;;;8.20;1.50;;;12.10;99.90;;;;;;5108883;28;20099;-73
2022/11/17 06:01:08;;;;;;;11.50;2.60;;;12.20;99.90;;;;;;5108368;28;20036;-73
2022/11/17 06:03:41;;;;;;;13.95;1.67;;;12.20;99.90;;;;;;5110986;28;20020;-73
2022/11/17 06:06:07;;;;;;;14.75;1.98;;;12.20;99.90;;;;;;5106895;28;20028;-73
2022/11/17 06:08:34;;;;;;;12.20;1.80;;;12.30;99.90;;;;;;5104162;28;20146;-73
2022/11/17 06:11:00;;;;;;;14.00;1.83;;;12.30;99.90;;;;;;5108017;28;20043;-73
2022/11/17 06:13:27;;;;;;;7.15;1.25;;;12.30;99.90;;;;;;5110115;28;20062;-74
2022/11/17 06:15:56;;;;;;;9.82;1.50;;;12.30;99.90;;;;;;5107887;28;20472;-74
2022/11/17 06:18:26;;;;;;;9.90;1.70;;;12.20;99.90;;;;;;5109257;28;20071;-73
2022/11/17 06:20:52;;;;;;;14.68;1.90;;;12.10;99.90;;;;;;5103611;28;20055;-73
2022/11/17 06:23:20;;;;;;;12.40;1.98;;;12.10;99.90;;;;;;5107711;28;20015;-73
2022/11/17 06:25:46;;;;;;;8.38;1.50;;;12.10;99.90;;;;;;5103961;28;20050;-73
2022/11/17 06:28:15;;;;;;;9.88;1.88;;;12.10;99.90;;;;;;5105185;28;20024;-73
2022/11/17 06:30:41;;;;;;;7.47;1.60;;;11.90;99.90;;;;;;5110654;28;20063;-73
2022/11/17 06:33:10;;;;;;;11.40;1.63;;;12.00;99.90;;;;;;5100393;28;20035;-73
2022/11/17 06:35:36;;;;;;;6.63;1.60;;;12.00;99.90;;;;;;5104149;28;20484;-73
2022/11/17 06:38:02;;;;;;;8.20;1.73;;;12.00;99.90;;;;;;5106078;28;20016;-73
2022/11/17 06:40:28;;;;;;;9.02;1.27;;;12.00;99.90;;;;;;5102666;28;20008;-73
2022/11/17 06:43:07;;;;;;;8.52;1.88;;;12.00;99.90;;;;;;5110122;28;20035;-73
2022/11/17 06:45:34;;;;;;;10.70;1.60;;;11.90;99.90;;;;;;5101813;28;20030;-73
2022/11/17 06:48:00;;;;;;;7.15;1.60;;;11.90;99.90;;;;;;5103770;28;20027;-73
2022/11/17 06:50:25;;;;;;;9.10;1.83;;;11.90;99.90;;;;;;5106496;28;20029;-73
2022/11/17 06:52:54;;;;;;;7.55;1.85;;;11.80;99.90;;;;;;5109885;28;20027;-73
2022/11/17 06:55:20;;;;;;;4.90;1.20;;;11.90;99.90;;;;;;5103783;28;20028;-73
2022/11/17 06:57:46;;;;;;;8.93;1.80;;;11.80;99.90;;;;;;5101115;28;20028;-73
2022/11/17 07:00:12;;;;;;;4.97;1.20;;;11.80;99.90;;;;;;5105768;28;20035;-73
2022/11/17 07:02:37;;;;;;;3.65;1.10;;;11.80;99.90;;;;;;5106772;28;20038;-73
2022/11/17 07:05:03;;;;;;;4.05;1.30;;;11.80;99.90;;;;;;5107669;28;20031;-73
2022/11/17 07:07:29;;;;;;;7.72;1.42;;;11.80;99.90;;;;;;5101511;28;20097;-73
2022/11/17 07:09:54;;;;;;;8.77;1.67;;;11.80;99.90;;;;;;5090103;28;20487;-73
2022/11/17 07:12:20;;;;;;;8.02;1.05;;;11.80;99.90;;;;;;5101493;28;20024;-73
2022/11/17 07:14:46;;;;;;;5.70;1.00;;;11.90;99.90;;;;;;5110824;28;20031;-73
2022/11/17 07:17:11;;;;;;;8.40;1.30;;;11.80;99.90;;;;;;5107441;28;20032;-73
2022/11/17 07:19:37;;;;;;;7.47;1.65;;;11.80;99.90;;;;;;5089202;28;20038;-73
2022/11/17 07:22:03;;;;;;;5.38;1.02;;;11.80;99.90;;;;;;5107977;28;20020;-73
2022/11/17 07:24:28;;;;;;;5.85;0.88;;;11.80;99.90;;;;;;5102727;28;20028;-73
2022/11/17 07:26:54;;;;;;;3.85;0.98;;;11.80;99.90;;;;;;5103683;28;20024;-74
2022/11/17 07:29:20;;;;;;;4.28;0.82;;;11.70;99.90;;;;;;5100200;28;20730;-73
2022/11/17 07:31:45;;;;;;;3.75;1.02;;;11.80;99.90;;;;;;5105635;28;20092;-73
2022/11/17 07:34:11;;;;;;;5.40;0.90;;;11.80;99.90;;;;;;5109594;28;20055;-73
2022/11/17 07:36:36;;;;;;;4.15;0.90;;;11.70;99.90;;;;;;5111181;28;20036;-73
2022/11/17 07:39:04;;;;;;;2.45;0.80;;;11.60;99.90;;;;;;5102833;28;20047;-72
2022/11/17 07:41:30;;;;;;;3.22;0.45;;;11.60;99.90;;;;;;5077783;28;20042;-72
2022/11/17 07:43:58;;;;;;;2.13;0.70;;;11.60;99.90;;;;;;5091252;28;20031;-72
2022/11/17 07:46:24;;;;;;;4.40;1.45;;;11.70;99.90;;;;;;5101789;28;20027;-72
2022/11/17 07:48:53;;;;;;;1.50;0.30;;;11.50;99.90;;;;;;5102135;28;20042;-73
2022/11/17 07:51:19;;;;;;;1.85;0.75;;;11.50;99.90;;;;;;5100767;28;20023;-73
2022/11/17 07:53:45;;;;;;;2.92;1.08;;;11.50;99.90;;;;;;5102556;28;20070;-73
2022/11/17 07:56:12;;;;;;;7.40;0.82;;;11.50;99.90;;;;;;5099621;28;20036;-74
2022/11/17 07:58:38;;;;;;;2.33;0.60;;;11.50;99.90;;;;;;5105071;28;20025;-73
2022/11/17 08:01:05;;;;;;;5.80;0.88;;;11.50;99.90;;;;;;5101166;28;20031;-73
2022/11/17 08:03:31;;;;;;;6.97;0.98;;;11.50;99.90;;;;;;5098733;28;20097;-73
2022/11/17 08:06:01;;;;;;;2.40;1.20;;;11.60;99.90;;;;;;5099715;28;20149;-73
2022/11/17 08:08:27;;;;;;;3.92;0.98;;;11.60;99.90;;;;;;5102270;28;20036;-73
2022/11/17 08:10:53;;;;;;;3.85;1.02;;;11.60;99.90;;;;;;5099971;28;20502;-73
2022/11/17 08:13:18;;;;;;;2.78;0.82;;;11.60;99.90;;;;;;5098848;28;20028;-73
2022/11/17 08:15:44;;;;;;;4.72;0.75;;;11.60;99.90;;;;;;5100145;28;22968;-73
2022/11/17 08:18:10;;;;;;;3.90;1.30;;;11.50;99.90;;;;;;5096154;28;20043;-73
2022/11/17 08:20:35;;;;;;;3.38;0.82;;;11.50;99.90;;;;;;5100223;28;20039;-73
2022/11/17 08:23:01;;;;;;;3.70;0.55;;;11.50;99.90;;;;;;5075915;28;20912;-73
2022/11/17 08:25:27;;;;;;;4.45;0.80;;;11.50;99.90;;;;;;5087807;28;20032;-74
2022/11/17 08:27:56;;;;;;;4.30;0.65;;;11.60;99.90;;;;;;5088203;28;20124;-72
2022/11/17 08:30:23;;;;;;;3.70;0.60;;;11.50;99.90;;;;;;5086741;28;20022;-73
2022/11/17 08:32:53;;;;;;;4.03;0.52;;;11.50;99.90;;;;;;5086499;28;20016;-73
2022/11/17 08:35:22;;;;;;;2.78;0.47;;;11.60;99.90;;;;;;5086280;28;20362;-74
2022/11/17 08:37:47;;;;;;;3.13;1.10;;;11.50;99.90;;;;;;5087486;28;20380;-74
2022/11/17 08:40:13;;;;;;;5.53;0.85;;;11.50;99.90;;;;;;5084552;28;20032;-74
2022/11/17 08:42:39;;;;;;;1.85;0.85;;;11.60;99.90;;;;;;5086525;28;20027;-73
2022/11/17 08:45:06;;;;;;;2.60;0.70;;;11.50;99.90;;;;;;5088328;28;20040;-73
2022/11/17 08:47:31;;;;;;;3.70;0.77;;;11.60;99.90;;;;;;5086654;28;20039;-73
2022/11/17 08:49:57;;;;;;;5.38;1.20;;;11.60;99.90;;;;;;5085691;28;20028;-73
2022/11/17 08:52:23;;;;;;;3.40;0.90;;;11.60;99.90;;;;;;5052654;28;20645;-73
2022/11/17 08:54:51;;;;;;;3.70;0.93;;;11.60;99.90;;;;;;5096336;28;20541;-74
2022/11/17 08:57:16;;;;;;;2.83;0.93;;;11.60;99.90;;;;;;5075964;28;20043;-73
2022/11/17 08:59:42;;;;;;;2.55;0.75;;;11.60;99.90;;;;;;5093742;28;20020;-74
2022/11/17 09:02:10;;;;;;;2.13;0.57;;;11.60;99.90;;;;;;5096178;28;20031;-74
2022/11/17 09:04:36;;;;;;;3.70;0.90;;;11.50;99.90;;;;;;5097366;28;20031;-73
2022/11/17 09:07:01;;;;;;;8.40;0.70;;;11.50;99.90;;;;;;5084882;28;20035;-80
2022/11/17 09:09:30;;;;;;;3.03;0.77;;;11.50;99.90;;;;;;5063686;28;20467;-73
2022/11/17 09:11:56;;;;;;;3.47;0.75;;;11.60;99.90;;;;;;5079165;28;20039;-83
2022/11/17 09:14:22;;;;;;;3.83;1.02;;;11.70;99.90;;;;;;5083933;28;20032;-83
2022/11/17 09:16:47;;;;;;;3.30;0.60;;;11.80;99.90;;;;;;5080443;28;20472;-75
2022/11/17 09:19:14;;;;;;;2.47;0.75;;;11.80;99.90;;;;;;5080891;28;20036;-75
2022/11/17 09:21:40;;;;;;;2.80;0.93;;;11.80;99.90;;;;;;5083485;28;20129;-73
2022/11/17 09:24:06;;;;;;;4.50;1.17;;;11.80;99.90;;;;;;5084241;28;20035;-73
2022/11/17 09:26:32;;;;;;;3.90;0.85;;;11.80;99.90;;;;;;5080016;28;21204;-73
2022/11/17 09:29:02;;;;;;;4.57;1.50;;;11.80;99.90;;;;;;5081554;28;20023;-72
2022/11/17 09:31:28;;;;;;;2.50;0.60;;;11.80;99.90;;;;;;5084493;28;20032;-73
2022/11/17 09:33:54;;;;;;;5.50;0.98;;;11.90;99.90;;;;;;5081580;28;20021;-73
2022/11/17 09:36:20;;;;;;;4.53;0.80;;;11.90;99.90;;;;;;5080805;28;20043;-73
2022/11/17 09:38:46;;;;;;;3.33;0.95;;;12.00;99.90;;;;;;5081894;28;20016;-73
2022/11/17 09:41:14;;;;;;;3.90;0.70;;;12.00;99.90;;;;;;5090913;28;20028;-73
2022/11/17 09:43:50;;;;;;;5.22;1.05;;;12.00;99.90;;;;;;5098405;28;20464;-72
2022/11/17 09:46:21;;;;;;;4.05;0.80;;;12.10;99.90;;;;;;5093407;28;20110;-73
2022/11/17 09:49:11;;;;;;;3.85;0.82;;;12.00;99.90;;;;;;5096691;28;20106;-73
2022/11/17 09:51:41;;;;;;;5.25;1.30;;;12.20;99.90;;;;;;5074644;28;20063;-72
2022/11/17 09:54:19;;;;;;;10.50;1.20;;;12.30;99.90;;;;;;5098741;28;20510;-72
2022/11/17 09:56:46;;;;;;;3.08;0.85;;;12.30;99.90;;;;;;5095901;28;20473;-73
2022/11/17 09:59:18;;;;;;;6.47;0.60;;;12.30;99.90;;;;;;5095554;28;20023;-74
2022/11/17 10:01:43;;;;;;;1.85;0.55;;;12.40;99.90;;;;;;5098940;28;20468;-72
2022/11/17 10:04:15;;;;;;;4.30;0.73;;;12.30;99.90;;;;;;5095654;28;20115;-74
2022/11/17 10:06:44;;;;;;;3.92;0.55;;;12.40;99.90;;;;;;5097776;28;20088;-73
2022/11/17 10:09:34;;;;;;;4.43;0.70;;;12.30;99.90;;;;;;5093766;28;20048;-74
2022/11/17 10:12:14;;;;;;;2.90;0.50;;;12.30;99.90;;;;;;5099501;28;20023;-72
2022/11/17 10:14:40;;;;;;;3.33;0.50;;;12.30;99.90;;;;;;5080465;28;20062;-73
2022/11/17 10:17:08;;;;;;;3.42;0.45;;;12.30;99.90;;;;;;5094384;28;20480;-73
2022/11/17 10:19:37;;;;;;;2.80;0.70;;;12.30;99.90;;;;;;5095989;28;20055;-73
2022/11/17 10:22:02;;;;;;;1.23;0.47;;;12.30;99.90;;;;;;5079313;28;20103;-73
2022/11/17 10:24:56;;;;;;;4.57;0.65;;;12.30;99.90;;;;;;5097039;28;20076;-73
2022/11/17 10:27:22;;;;;;;2.28;0.88;;;12.30;99.90;;;;;;5092859;28;20040;-73
2022/11/17 10:30:13;;;;;;;2.65;0.70;;;12.40;99.90;;;;;;5095262;28;20035;-74
2022/11/17 10:32:51;;;;;;;2.42;0.57;;;12.40;99.90;;;;;;5089248;28;20097;-73
2022/11/17 10:35:20;;;;;;;2.08;0.77;;;12.50;99.90;;;;;;5095711;28;20476;-73
2022/11/17 10:38:07;;;;;;;3.65;1.05;;;12.40;99.90;;;;;;5096770;28;20068;-73
2022/11/17 10:40:53;;;;;;;2.28;0.50;;;12.50;99.90;;;;;;5095270;28;20059;-73
2022/11/17 10:43:49;;;;;;;2.17;0.65;;;12.50;99.90;;;;;;5098306;28;20016;-73
2022/11/17 10:46:15;;;;;;;9.68;1.05;;;12.50;99.90;;;;;;5056564;28;20059;-73
2022/11/17 10:49:02;;;;;;;1.80;0.60;;;12.50;99.90;;;;;;5096275;28;20384;-73
2022/11/17 10:51:31;;;;;;;1.73;0.52;;;12.50;99.90;;;;;;5096934;28;20028;-73
2022/11/17 10:54:15;;;;;;;3.97;0.77;;;12.50;99.90;;;;;;5097100;28;20139;-72
2022/11/17 10:56:50;;;;;;;2.80;0.80;;;12.60;99.90;;;;;;5095988;28;20036;-72
2022/11/17 10:59:18;;;;;;;3.92;1.17;;;12.60;99.90;;;;;;5095402;28;20641;-72
2022/11/17 11:01:48;;;;;;;3.72;0.65;;;12.70;99.90;;;;;;5096322;28;20032;-72
2022/11/17 11:04:26;;;;;;;4.85;0.88;;;12.70;99.90;;;;;;5093787;28;20015;-73
2022/11/17 11:07:13;;;;;;;4.60;1.08;;;12.80;99.90;;;;;;5099807;28;20045;-73
2022/11/17 11:10:12;;;;;;;3.75;1.23;;;12.80;99.90;;;;;;5079754;28;20472;-73
2022/11/17 11:13:24;;;;;;;3.78;0.88;;;12.90;99.90;;;;;;5097644;28;20415;-72
2022/11/17 11:15:52;;;;;;;5.95;1.15;;;12.90;99.90;;;;;;5098638;28;20054;-73
2022/11/17 11:18:19;;;;;;;5.45;1.30;;;13.00;99.90;;;;;;5088751;28;20032;-73
2022/11/17 11:21:16;;;;;;;2.25;0.60;;;13.10;99.90;;;;;;5095734;28;20051;-73
2022/11/17 11:23:52;;;;;;;1.58;0.80;;;13.10;99.90;;;;;;5079086;28;20031;-73
2022/11/17 11:27:00;;;;;;;3.97;0.80;;;13.10;99.90;;;;;;5094923;28;20043;-73
2022/11/17 11:29:51;;;;;;;5.40;0.60;;;13.10;99.90;;;;;;5094029;28;20028;-73
2022/11/17 11:32:44;;;;;;;4.22;0.60;;;13.10;99.90;;;;;;5094080;28;20153;-72
2022/11/17 11:35:28;;;;;;;2.13;0.60;;;13.20;99.90;;;;;;5093381;28;20461;-72
2022/11/17 11:37:53;;;;;;;3.78;0.63;;;13.20;99.90;;;;;;5098756;28;20035;-72
2022/11/17 11:40:27;;;;;;;5.38;0.70;;;13.20;99.90;;;;;;5095922;28;20027;-73
2022/11/17 11:42:58;;;;;;;2.10;0.68;;;13.20;99.90;;;;;;5092921;28;20486;-73
2022/11/17 11:45:43;;;;;;;4.55;0.95;;;13.10;99.90;;;;;;5093140;28;20442;-72
2022/11/17 11:48:16;;;;;;;6.25;0.85;;;13.00;99.90;;;;;;5093564;28;20031;-71
2022/11/17 11:50:52;;;;;;;3.10;0.68;;;13.00;99.90;;;;;;5095562;28;20376;-72
2022/11/17 11:53:24;;;;;;;11.48;1.20;;;12.80;99.90;;;;;;5095440;28;20418;-71
2022/11/17 11:56:16;;;;;;;3.33;0.60;;;12.80;99.90;;;;;;5092909;28;20059;-72
2022/11/17 11:58:51;;;;;;;2.60;0.90;;;12.80;99.90;;;;;;5093804;28;20099;-72
2022/11/17 12:01:20;;;;;;;5.25;0.95;;;12.80;99.90;;;;;;5093829;28;20024;-72
2022/11/17 12:03:51;;;;;;;3.45;0.90;;;12.70;99.90;;;;;;5095790;28;20028;-73
2022/11/17 12:06:41;;;;;;;3.58;0.90;;;12.70;99.90;;;;;;5076704;28;20192;-72
2022/11/17 12:09:21;;;;;;;3.65;0.90;;;12.70;99.90;;;;;;5097711;28;20036;-72
2022/11/17 12:12:00;;;;;;;3.13;0.77;;;12.80;99.90;;;;;;5097424;28;20024;-73
2022/11/17 12:14:34;;;;;;;2.22;0.70;;;12.80;99.90;;;;;;5092575;28;20047;-72
2022/11/17 12:17:22;;;;;;;4.13;0.80;;;12.90;99.90;;;;;;5093210;28;20051;-73
2022/11/17 12:19:56;;;;;;;5.45;1.08;;;12.90;99.90;;;;;;5093455;28;20028;-72
2022/11/17 12:22:31;;;;;;;6.10;0.90;;;12.90;99.90;;;;;;5094720;28;20028;-72
2022/11/17 12:25:01;;;;;;;2.28;0.93;;;12.90;99.90;;;;;;5093960;28;20016;-72
2022/11/17 12:27:32;;;;;;;4.35;1.10;;;13.00;99.90;;;;;;5095546;28;20370;-72
2022/11/17 12:29:58;;;;;;;5.20;0.65;;;13.10;99.90;;;;;;5096341;28;20080;-72
2022/11/17 12:32:42;;;;;;;3.60;0.70;;;13.10;99.90;;;;;;5096289;28;20027;-75
2022/11/17 12:35:28;;;;;;;4.07;1.15;;;13.10;99.90;;;;;;5097341;28;20036;-72
2022/11/17 12:38:12;;;;;;;4.63;0.90;;;13.00;99.90;;;;;;5096978;28;20041;-72
2022/11/17 12:40:38;;;;;;;4.13;0.90;;;13.10;99.90;;;;;;5097083;28;20015;-73
2022/11/17 12:43:18;;;;;;;3.17;0.90;;;13.10;99.90;;;;;;5095592;28;20027;-73
2022/11/17 12:45:58;;;;;;;3.22;0.68;;;13.10;99.90;;;;;;5080043;28;20028;-72
2022/11/17 12:48:29;;;;;;;2.70;0.75;;;13.20;99.90;;;;;;5094152;28;20043;-73
2022/11/17 12:51:05;;;;;;;2.75;0.90;;;13.20;99.90;;;;;;5099157;28;20093;-72
2022/11/17 12:53:55;;;;;;;2.20;0.55;;;13.20;99.90;;;;;;5097628;28;20072;-73
2022/11/17 12:56:31;;;;;;;11.15;0.70;;;13.30;99.90;;;;;;5098748;28;20043;-73
2022/11/17 12:59:17;;;;;;;2.25;0.68;;;13.30;99.90;;;;;;5095774;28;20059;-73
2022/11/17 13:01:55;;;;;;;2.58;0.50;;;13.30;99.90;;;;;;5081660;28;20080;-74
2022/11/17 13:04:30;;;;;;;3.97;0.70;;;13.30;99.90;;;;;;5095096;28;20039;-75
2022/11/17 13:07:04;;;;;;;1.15;0.80;;;13.20;99.90;;;;;;5098046;28;20028;-73
2022/11/17 13:09:32;;;;;;;1.85;0.60;;;13.20;99.90;;;;;;5096140;28;20020;-72
2022/11/17 13:12:05;;;;;;;3.78;0.70;;;13.20;99.90;;;;;;5095857;28;20016;-77
2022/11/17 13:14:49;;;;;;;4.32;0.50;;;13.20;99.90;;;;;;5098611;28;20027;-77
2022/11/17 13:17:15;;;;;;;2.20;0.50;;;13.10;99.90;;;;;;5094465;28;20331;-73
2022/11/17 13:19:41;;;;;;;2.75;0.70;;;13.10;99.90;;;;;;5095888;28;20032;-72
2022/11/17 13:22:20;;;;;;;3.80;1.08;;;13.20;99.90;;;;;;5098964;28;20040;-72
2022/11/17 13:24:47;;;;;;;3.72;0.75;;;13.30;99.90;;;;;;5093647;28;20084;-72
2022/11/17 13:27:31;;;;;;;2.85;0.90;;;13.30;99.90;;;;;;5093805;28;20367;-71
2022/11/17 13:30:22;;;;;;;5.75;0.98;;;13.30;99.90;;;;;;5096617;28;20044;-72
2022/11/17 13:32:49;;;;;;;2.20;0.70;;;13.20;99.90;;;;;;5073097;28;20023;-72